sensor_id;sensor_type;location;lat;lon;timestamp;temperature;humidity
9305;DHT22;4690;52.422;13.486;2024-01-10T00:09:32;-8.20;99.90
9305;DHT22;4690;52.422;13.486;2024-01-10T00:11:57;-8.20;99.90
9305;DHT22;4690;52.422;13.486;2024-01-10T00:14:23;-8.20;99.90
9305;DHT22;4690;52.422;13.486;2024-01-10T00:16:49;-8.20;99.90
9305;DHT22;4690;52.422;13.486;2024-01-10T00:19:15;-8.30;99.90
9305;DHT22;4690;52.422;13.486;2024-01-10T00:21:40;-8.30;99.90
9305;DHT22;4690;52.422;13.486;2024-01-10T00:24:06;-8.20;99.90
9305;DHT22;4690;52.422;13.486;2024-01-10T00:26:32;-8.20;99.90
9305;DHT22;4690;52.422;13.486;2024-01-10T00:28:57;-8.20;99.90
9305;DHT22;4690;52.422;13.486;2024-01-10T00:31:23;-8.30;99.90
9305;DHT22;4690;52.422;13.486;2024-01-10T00:33:49;-8.30;99.90
9305;DHT22;4690;52.422;13.486;2024-01-10T00:36:15;-8.20;99.90
9305;DHT22;4690;52.422;13.486;2024-01-10T00:38:41;-8.30;99.90
9305;DHT22;4690;52.422;13.486;2024-01-10T00:41:06;-8.30;99.90
9305;DHT22;4690;52.422;13.486;2024-01-10T00:43:32;-8.30;99.90
9305;DHT22;4690;52.422;13.486;2024-01-10T00:45:58;-8.30;99.90
9305;DHT22;4690;52.422;13.486;2024-01-10T00:48:24;-8.30;99.90
9305;DHT22;4690;52.422;13.486;2024-01-10T00:50:49;-8.30;99.90
9305;DHT22;4690;52.422;13.486;2024-01-10T00:53:15;-8.40;99.90
9305;DHT22;4690;52.422;13.486;2024-01-10T00:55:41;-8.40;99.90
9305;DHT22;4690;52.422;13.486;2024-01-10T00:58:07;-8.40;99.90
9305;DHT22;4690;52.422;13.486;2024-01-10T01:00:32;-8.30;99.90
9305;DHT22;4690;52.422;13.486;2024-01-10T01:02:58;-8.30;99.90
9305;DHT22;4690;52.422;13.486;2024-01-10T01:05:24;-8.30;99.90
9305;DHT22;4690;52.422;13.486;2024-01-10T01:07:50;-8.30;99.90
9305;DHT22;4690;52.422;13.486;2024-01-10T01:10:15;-8.40;99.90
9305;DHT22;4690;52.422;13.486;2024-01-10T01:12:41;-8.40;99.90
9305;DHT22;4690;52.422;13.486;2024-01-10T01:15:07;-8.40;99.90
9305;DHT22;4690;52.422;13.486;2024-01-10T01:17:33;-8.40;99.90
9305;DHT22;4690;52.422;13.486;2024-01-10T01:20:00;-8.50;99.90
9305;DHT22;4690;52.422;13.486;2024-01-10T01:22:26;-8.50;99.90
9305;DHT22;4690;52.422;13.486;2024-01-10T01:24:52;-8.40;99.90
9305;DHT22;4690;52.422;13.486;2024-01-10T01:27:17;-8.40;99.90
9305;DHT22;4690;52.422;13.486;2024-01-10T01:29:43;-8.40;99.90
9305;DHT22;4690;52.422;13.486;2024-01-10T01:32:09;-8.30;99.90
9305;DHT22;4690;52.422;13.486;2024-01-10T01:34:35;-8.30;99.90
9305;DHT22;4690;52.422;13.486;2024-01-10T01:37:00;-8.30;99.90
9305;DHT22;4690;52.422;13.486;2024-01-10T01:39:26;-8.20;99.90
9305;DHT22;4690;52.422;13.486;2024-01-10T01:41:52;-8.30;99.90
9305;DHT22;4690;52.422;13.486;2024-01-10T01:44:17;-8.30;99.90
9305;DHT22;4690;52.422;13.486;2024-01-10T01:46:44;-8.30;99.90
9305;DHT22;4690;52.422;13.486;2024-01-10T01:49:12;-8.30;99.90
9305;DHT22;4690;52.422;13.486;2024-01-10T01:51:39;-8.30;99.90
9305;DHT22;4690;52.422;13.486;2024-01-10T01:54:07;-8.30;99.90
9305;DHT22;4690;52.422;13.486;2024-01-10T01:56:36;-8.30;99.90
9305;DHT22;4690;52.422;13.486;2024-01-10T01:59:06;-8.30;99.90
9305;DHT22;4690;52.422;13.486;2024-01-10T02:01:33;-8.40;99.90
9305;DHT22;4690;52.422;13.486;2024-01-10T02:04:03;-8.40;99.90
9305;DHT22;4690;52.422;13.486;2024-01-10T02:06:29;-8.40;99.90
9305;DHT22;4690;52.422;13.486;2024-01-10T02:08:59;-8.40;99.90
9305;DHT22;4690;52.422;13.486;2024-01-10T02:11:25;-8.40;99.90
9305;DHT22;4690;52.422;13.486;2024-01-10T02:13:52;-8.40;99.90
9305;DHT22;4690;52.422;13.486;2024-01-10T02:16:20;-8.40;99.90
9305;DHT22;4690;52.422;13.486;2024-01-10T02:18:49;-8.40;99.90
9305;DHT22;4690;52.422;13.486;2024-01-10T02:21:15;-8.40;99.90
9305;DHT22;4690;52.422;13.486;2024-01-10T02:23:41;-8.40;99.90
9305;DHT22;4690;52.422;13.486;2024-01-10T02:26:07;-8.50;99.90
9305;DHT22;4690;52.422;13.486;2024-01-10T02:28:32;-8.50;99.90
9305;DHT22;4690;52.422;13.486;2024-01-10T02:30:59;-8.50;99.90
9305;DHT22;4690;52.422;13.486;2024-01-10T02:33:25;-8.50;99.90
9305;DHT22;4690;52.422;13.486;2024-01-10T02:35:51;-8.50;99.90
9305;DHT22;4690;52.422;13.486;2024-01-10T02:38:17;-8.50;99.90
9305;DHT22;4690;52.422;13.486;2024-01-10T02:40:46;-8.50;99.90
9305;DHT22;4690;52.422;13.486;2024-01-10T02:43:11;-8.60;99.90
9305;DHT22;4690;52.422;13.486;2024-01-10T02:45:37;-8.60;99.90
9305;DHT22;4690;52.422;13.486;2024-01-10T02:48:03;-8.60;99.90
9305;DHT22;4690;52.422;13.486;2024-01-10T02:50:29;-8.60;99.90
9305;DHT22;4690;52.422;13.486;2024-01-10T02:52:54;-8.50;99.90
9305;DHT22;4690;52.422;13.486;2024-01-10T02:55:20;-8.50;99.90
9305;DHT22;4690;52.422;13.486;2024-01-10T02:57:46;-8.50;99.90
9305;DHT22;4690;52.422;13.486;2024-01-10T03:00:12;-8.60;99.90
9305;DHT22;4690;52.422;13.486;2024-01-10T03:02:38;-8.60;99.90
9305;DHT22;4690;52.422;13.486;2024-01-10T03:05:04;-8.60;99.90
9305;DHT22;4690;52.422;13.486;2024-01-10T03:07:30;-8.60;99.90
9305;DHT22;4690;52.422;13.486;2024-01-10T03:09:56;-8.50;99.90
9305;DHT22;4690;52.422;13.486;2024-01-10T03:12:22;-8.50;99.90
9305;DHT22;4690;52.422;13.486;2024-01-10T03:14:47;-8.50;99.90
9305;DHT22;4690;52.422;13.486;2024-01-10T03:17:13;-8.60;99.90
9305;DHT22;4690;52.422;13.486;2024-01-10T03:19:39;-8.50;99.90
9305;DHT22;4690;52.422;13.486;2024-01-10T03:22:09;-8.50;99.90
9305;DHT22;4690;52.422;13.486;2024-01-10T03:24:36;-8.60;99.90
9305;DHT22;4690;52.422;13.486;2024-01-10T03:27:03;-8.60;99.90
9305;DHT22;4690;52.422;13.486;2024-01-10T03:29:29;-8.60;99.90
9305;DHT22;4690;52.422;13.486;2024-01-10T03:31:55;-8.60;99.90
9305;DHT22;4690;52.422;13.486;2024-01-10T03:34:21;-8.50;99.90
9305;DHT22;4690;52.422;13.486;2024-01-10T03:36:46;-8.60;99.90
9305;DHT22;4690;52.422;13.486;2024-01-10T03:39:12;-8.50;99.90
9305;DHT22;4690;52.422;13.486;2024-01-10T03:41:38;-8.60;99.90
9305;DHT22;4690;52.422;13.486;2024-01-10T03:44:04;-8.50;99.90
9305;DHT22;4690;52.422;13.486;2024-01-10T03:46:29;-8.50;99.90
9305;DHT22;4690;52.422;13.486;2024-01-10T03:48:55;-8.50;99.90
9305;DHT22;4690;52.422;13.486;2024-01-10T03:51:21;-8.60;99.90
9305;DHT22;4690;52.422;13.486;2024-01-10T03:53:47;-8.60;99.90
9305;DHT22;4690;52.422;13.486;2024-01-10T03:56:14;-8.60;99.90
9305;DHT22;4690;52.422;13.486;2024-01-10T03:58:40;-8.70;99.90
9305;DHT22;4690;52.422;13.486;2024-01-10T04:01:07;-8.60;99.90
9305;DHT22;4690;52.422;13.486;2024-01-10T04:03:34;-8.60;99.90
9305;DHT22;4690;52.422;13.486;2024-01-10T04:06:01;-8.60;99.90
9305;DHT22;4690;52.422;13.486;2024-01-10T04:08:27;-8.60;99.90
9305;DHT22;4690;52.422;13.486;2024-01-10T04:10:53;-8.60;99.90
9305;DHT22;4690;52.422;13.486;2024-01-10T04:13:19;-8.60;99.90
9305;DHT22;4690;52.422;13.486;2024-01-10T04:15:45;-8.60;99.90
9305;DHT22;4690;52.422;13.486;2024-01-10T04:18:11;-8.60;99.90
9305;DHT22;4690;52.422;13.486;2024-01-10T04:20:37;-8.70;99.90
9305;DHT22;4690;52.422;13.486;2024-01-10T04:23:03;-8.60;99.90
9305;DHT22;4690;52.422;13.486;2024-01-10T04:25:29;-8.70;99.90
9305;DHT22;4690;52.422;13.486;2024-01-10T04:27:54;-8.70;99.90
9305;DHT22;4690;52.422;13.486;2024-01-10T04:30:21;-8.80;99.90
9305;DHT22;4690;52.422;13.486;2024-01-10T04:32:46;-8.70;99.90
9305;DHT22;4690;52.422;13.486;2024-01-10T04:35:12;-8.70;99.90
9305;DHT22;4690;52.422;13.486;2024-01-10T04:37:38;-8.70;99.90
9305;DHT22;4690;52.422;13.486;2024-01-10T04:40:05;-8.80;99.90
9305;DHT22;4690;52.422;13.486;2024-01-10T04:42:31;-8.80;99.90
9305;DHT22;4690;52.422;13.486;2024-01-10T04:44:57;-8.80;99.90
9305;DHT22;4690;52.422;13.486;2024-01-10T04:47:23;-8.80;99.90
9305;DHT22;4690;52.422;13.486;2024-01-10T04:49:48;-8.90;99.90
9305;DHT22;4690;52.422;13.486;2024-01-10T04:52:14;-8.90;99.90
9305;DHT22;4690;52.422;13.486;2024-01-10T04:54:40;-8.80;99.90
9305;DHT22;4690;52.422;13.486;2024-01-10T04:57:06;-8.80;99.90
9305;DHT22;4690;52.422;13.486;2024-01-10T04:59:32;-8.80;99.90
9305;DHT22;4690;52.422;13.486;2024-01-10T05:01:58;-8.90;99.90
9305;DHT22;4690;52.422;13.486;2024-01-10T05:04:24;-8.90;99.90
9305;DHT22;4690;52.422;13.486;2024-01-10T05:06:50;-8.90;99.90
9305;DHT22;4690;52.422;13.486;2024-01-10T05:09:17;-9.00;99.90
9305;DHT22;4690;52.422;13.486;2024-01-10T05:11:42;-8.90;99.90
9305;DHT22;4690;52.422;13.486;2024-01-10T05:14:08;-8.90;99.90
9305;DHT22;4690;52.422;13.486;2024-01-10T05:16:34;-8.90;99.90
9305;DHT22;4690;52.422;13.486;2024-01-10T05:19:03;-8.90;99.90
9305;DHT22;4690;52.422;13.486;2024-01-10T05:21:31;-8.90;99.90
9305;DHT22;4690;52.422;13.486;2024-01-10T05:23:57;-8.90;99.90
9305;DHT22;4690;52.422;13.486;2024-01-10T05:26:23;-8.80;99.90
9305;DHT22;4690;52.422;13.486;2024-01-10T05:28:49;-8.80;99.90
9305;DHT22;4690;52.422;13.486;2024-01-10T05:31:15;-8.80;99.90
9305;DHT22;4690;52.422;13.486;2024-01-10T05:33:40;-8.80;99.90
9305;DHT22;4690;52.422;13.486;2024-01-10T05:36:08;-8.80;99.90
9305;DHT22;4690;52.422;13.486;2024-01-10T05:38:37;-8.80;99.90
9305;DHT22;4690;52.422;13.486;2024-01-10T05:41:03;-8.80;99.90
9305;DHT22;4690;52.422;13.486;2024-01-10T05:43:29;-8.90;99.90
9305;DHT22;4690;52.422;13.486;2024-01-10T05:45:55;-8.80;99.90
9305;DHT22;4690;52.422;13.486;2024-01-10T05:48:20;-8.80;99.90
9305;DHT22;4690;52.422;13.486;2024-01-10T05:50:46;-8.80;99.90
9305;DHT22;4690;52.422;13.486;2024-01-10T05:53:12;-8.80;99.90
9305;DHT22;4690;52.422;13.486;2024-01-10T05:55:42;-8.80;99.90
9305;DHT22;4690;52.422;13.486;2024-01-10T05:58:08;-8.80;99.90
9305;DHT22;4690;52.422;13.486;2024-01-10T06:00:35;-8.80;99.90
9305;DHT22;4690;52.422;13.486;2024-01-10T06:03:00;-8.80;99.90
9305;DHT22;4690;52.422;13.486;2024-01-10T06:05:26;-8.80;99.90
9305;DHT22;4690;52.422;13.486;2024-01-10T06:07:52;-8.70;99.90
9305;DHT22;4690;52.422;13.486;2024-01-10T06:10:18;-8.70;99.90
9305;DHT22;4690;52.422;13.486;2024-01-10T06:12:43;-8.70;99.90
9305;DHT22;4690;52.422;13.486;2024-01-10T06:15:09;-8.70;99.90
9305;DHT22;4690;52.422;13.486;2024-01-10T06:17:35;-8.80;99.90
9305;DHT22;4690;52.422;13.486;2024-01-10T06:20:01;-8.70;99.90
9305;DHT22;4690;52.422;13.486;2024-01-10T06:22:29;-8.70;99.90
9305;DHT22;4690;52.422;13.486;2024-01-10T06:24:55;-8.80;99.90
9305;DHT22;4690;52.422;13.486;2024-01-10T06:27:20;-8.80;99.90
9305;DHT22;4690;52.422;13.486;2024-01-10T06:29:46;-8.80;99.90
9305;DHT22;4690;52.422;13.486;2024-01-10T06:32:12;-8.70;99.90
9305;DHT22;4690;52.422;13.486;2024-01-10T06:34:37;-8.70;99.90
9305;DHT22;4690;52.422;13.486;2024-01-10T06:37:03;-8.70;99.90
9305;DHT22;4690;52.422;13.486;2024-01-10T06:39:29;-8.80;99.90
9305;DHT22;4690;52.422;13.486;2024-01-10T06:41:55;-8.80;99.90
9305;DHT22;4690;52.422;13.486;2024-01-10T06:44:20;-8.80;99.90
9305;DHT22;4690;52.422;13.486;2024-01-10T06:46:46;-8.80;99.90
9305;DHT22;4690;52.422;13.486;2024-01-10T06:49:12;-8.80;99.90
9305;DHT22;4690;52.422;13.486;2024-01-10T06:51:38;-8.80;99.90
9305;DHT22;4690;52.422;13.486;2024-01-10T06:54:04;-8.80;99.90
9305;DHT22;4690;52.422;13.486;2024-01-10T06:56:31;-8.80;99.90
9305;DHT22;4690;52.422;13.486;2024-01-10T06:58:58;-8.80;99.90
9305;DHT22;4690;52.422;13.486;2024-01-10T07:01:26;-8.70;99.90
9305;DHT22;4690;52.422;13.486;2024-01-10T07:03:53;-8.70;99.90
9305;DHT22;4690;52.422;13.486;2024-01-10T07:06:22;-8.70;99.90
9305;DHT22;4690;52.422;13.486;2024-01-10T07:08:49;-8.70;99.90
9305;DHT22;4690;52.422;13.486;2024-01-10T07:11:16;-8.60;99.90
9305;DHT22;4690;52.422;13.486;2024-01-10T07:13:43;-8.60;99.90
9305;DHT22;4690;52.422;13.486;2024-01-10T07:16:09;-8.50;99.90
9305;DHT22;4690;52.422;13.486;2024-01-10T07:18:35;-8.50;99.90
9305;DHT22;4690;52.422;13.486;2024-01-10T07:21:01;-8.60;99.90
9305;DHT22;4690;52.422;13.486;2024-01-10T07:23:27;-8.50;99.90
9305;DHT22;4690;52.422;13.486;2024-01-10T07:25:53;-8.50;99.90
9305;DHT22;4690;52.422;13.486;2024-01-10T07:28:19;-8.50;99.90
9305;DHT22;4690;52.422;13.486;2024-01-10T07:30:46;-8.50;99.90
9305;DHT22;4690;52.422;13.486;2024-01-10T07:33:12;-8.40;99.90
9305;DHT22;4690;52.422;13.486;2024-01-10T07:35:39;-8.40;99.90
9305;DHT22;4690;52.422;13.486;2024-01-10T07:38:05;-8.50;99.90
9305;DHT22;4690;52.422;13.486;2024-01-10T07:40:35;-8.40;99.90
9305;DHT22;4690;52.422;13.486;2024-01-10T07:43:01;-8.50;99.90
9305;DHT22;4690;52.422;13.486;2024-01-10T07:45:28;-8.40;99.90
9305;DHT22;4690;52.422;13.486;2024-01-10T07:47:54;-8.40;99.90
9305;DHT22;4690;52.422;13.486;2024-01-10T07:50:20;-8.40;99.90
9305;DHT22;4690;52.422;13.486;2024-01-10T07:52:46;-8.40;99.90
9305;DHT22;4690;52.422;13.486;2024-01-10T07:55:13;-8.20;99.90
9305;DHT22;4690;52.422;13.486;2024-01-10T07:57:38;-8.20;99.90
9305;DHT22;4690;52.422;13.486;2024-01-10T08:00:08;-8.20;99.90
9305;DHT22;4690;52.422;13.486;2024-01-10T08:02:37;-8.10;99.90
9305;DHT22;4690;52.422;13.486;2024-01-10T08:05:04;-8.10;99.90
9305;DHT22;4690;52.422;13.486;2024-01-10T08:07:35;-8.00;99.90
9305;DHT22;4690;52.422;13.486;2024-01-10T08:10:04;-8.00;99.90
9305;DHT22;4690;52.422;13.486;2024-01-10T08:12:31;-8.00;99.90
9305;DHT22;4690;52.422;13.486;2024-01-10T08:14:57;-7.90;99.90
9305;DHT22;4690;52.422;13.486;2024-01-10T08:17:23;-7.90;99.90
9305;DHT22;4690;52.422;13.486;2024-01-10T08:19:49;-7.80;99.90
9305;DHT22;4690;52.422;13.486;2024-01-10T08:22:14;-7.80;99.90
9305;DHT22;4690;52.422;13.486;2024-01-10T08:24:41;-7.70;99.90
9305;DHT22;4690;52.422;13.486;2024-01-10T08:27:06;-7.70;99.90
9305;DHT22;4690;52.422;13.486;2024-01-10T08:29:33;-7.70;99.90
9305;DHT22;4690;52.422;13.486;2024-01-10T08:31:59;-7.60;99.90
9305;DHT22;4690;52.422;13.486;2024-01-10T08:34:25;-7.50;99.90
9305;DHT22;4690;52.422;13.486;2024-01-10T08:36:51;-7.50;99.90
9305;DHT22;4690;52.422;13.486;2024-01-10T08:39:17;-7.50;99.90
9305;DHT22;4690;52.422;13.486;2024-01-10T08:41:43;-7.40;99.90
9305;DHT22;4690;52.422;13.486;2024-01-10T08:44:12;-7.30;99.90
9305;DHT22;4690;52.422;13.486;2024-01-10T08:46:38;-7.20;99.90
9305;DHT22;4690;52.422;13.486;2024-01-10T08:49:04;-7.20;99.90
9305;DHT22;4690;52.422;13.486;2024-01-10T08:51:30;-7.10;99.90
9305;DHT22;4690;52.422;13.486;2024-01-10T08:53:56;-7.10;99.90
9305;DHT22;4690;52.422;13.486;2024-01-10T08:56:23;-7.10;99.90
9305;DHT22;4690;52.422;13.486;2024-01-10T08:58:49;-7.10;99.90
9305;DHT22;4690;52.422;13.486;2024-01-10T09:01:15;-7.00;99.90
9305;DHT22;4690;52.422;13.486;2024-01-10T09:03:41;-6.90;99.90
9305;DHT22;4690;52.422;13.486;2024-01-10T09:06:07;-6.90;99.90
9305;DHT22;4690;52.422;13.486;2024-01-10T09:08:33;-6.90;99.90
9305;DHT22;4690;52.422;13.486;2024-01-10T09:11:02;-6.80;99.90
9305;DHT22;4690;52.422;13.486;2024-01-10T09:13:29;-6.70;99.90
9305;DHT22;4690;52.422;13.486;2024-01-10T09:15:55;-6.70;99.90
9305;DHT22;4690;52.422;13.486;2024-01-10T09:18:21;-6.70;99.90
9305;DHT22;4690;52.422;13.486;2024-01-10T09:20:47;-6.60;99.90
9305;DHT22;4690;52.422;13.486;2024-01-10T09:23:13;-6.70;99.90
9305;DHT22;4690;52.422;13.486;2024-01-10T09:25:40;-6.70;99.90
9305;DHT22;4690;52.422;13.486;2024-01-10T09:28:06;-6.70;99.90
9305;DHT22;4690;52.422;13.486;2024-01-10T09:30:31;-6.60;99.90
9305;DHT22;4690;52.422;13.486;2024-01-10T09:32:57;-6.50;99.90
9305;DHT22;4690;52.422;13.486;2024-01-10T09:35:24;-6.50;99.90
9305;DHT22;4690;52.422;13.486;2024-01-10T09:37:50;-6.40;99.90
9305;DHT22;4690;52.422;13.486;2024-01-10T09:40:16;-6.40;99.90
9305;DHT22;4690;52.422;13.486;2024-01-10T09:42:44;-6.40;99.90
9305;DHT22;4690;52.422;13.486;2024-01-10T09:45:10;-6.30;99.90
9305;DHT22;4690;52.422;13.486;2024-01-10T09:47:40;-6.20;99.90
9305;DHT22;4690;52.422;13.486;2024-01-10T09:50:08;-6.10;99.90
9305;DHT22;4690;52.422;13.486;2024-01-10T09:53:02;-6.00;99.90
9305;DHT22;4690;52.422;13.486;2024-01-10T09:55:36;-5.90;99.90
9305;DHT22;4690;52.422;13.486;2024-01-10T09:58:06;-5.90;99.90
9305;DHT22;4690;52.422;13.486;2024-01-10T10:00:35;-5.80;99.90
9305;DHT22;4690;52.422;13.486;2024-01-10T10:03:03;-5.70;99.90
9305;DHT22;4690;52.422;13.486;2024-01-10T10:05:32;-5.60;99.90
9305;DHT22;4690;52.422;13.486;2024-01-10T10:07:59;-5.50;99.90
9305;DHT22;4690;52.422;13.486;2024-01-10T10:10:25;-5.50;99.90
9305;DHT22;4690;52.422;13.486;2024-01-10T10:12:53;-5.40;99.90
9305;DHT22;4690;52.422;13.486;2024-01-10T10:15:23;-5.30;99.90
9305;DHT22;4690;52.422;13.486;2024-01-10T10:17:53;-5.20;99.90
9305;DHT22;4690;52.422;13.486;2024-01-10T10:23:08;-5.10;99.90
9305;DHT22;4690;52.422;13.486;2024-01-10T10:25:45;-5.00;99.90
9305;DHT22;4690;52.422;13.486;2024-01-10T10:28:13;-4.80;99.90
9305;DHT22;4690;52.422;13.486;2024-01-10T10:30:38;-4.80;99.90
9305;DHT22;4690;52.422;13.486;2024-01-10T10:33:05;-4.70;99.90
9305;DHT22;4690;52.422;13.486;2024-01-10T10:35:33;-4.80;99.90
9305;DHT22;4690;52.422;13.486;2024-01-10T10:38:00;-4.70;99.90
9305;DHT22;4690;52.422;13.486;2024-01-10T10:40:25;-4.70;99.90
9305;DHT22;4690;52.422;13.486;2024-01-10T10:42:55;-4.70;99.90
9305;DHT22;4690;52.422;13.486;2024-01-10T10:45:22;-4.70;99.90
9305;DHT22;4690;52.422;13.486;2024-01-10T10:48:01;-4.60;99.90
9305;DHT22;4690;52.422;13.486;2024-01-10T10:50:34;-4.50;99.90
9305;DHT22;4690;52.422;13.486;2024-01-10T10:53:03;-4.50;99.90
9305;DHT22;4690;52.422;13.486;2024-01-10T10:55:29;-4.40;99.90
9305;DHT22;4690;52.422;13.486;2024-01-10T10:57:58;-4.30;99.90
9305;DHT22;4690;52.422;13.486;2024-01-10T11:00:27;-4.20;99.90
9305;DHT22;4690;52.422;13.486;2024-01-10T11:02:55;-4.00;99.90
9305;DHT22;4690;52.422;13.486;2024-01-10T11:05:23;-4.10;99.90
9305;DHT22;4690;52.422;13.486;2024-01-10T11:07:49;-4.00;99.90
9305;DHT22;4690;52.422;13.486;2024-01-10T11:24:40;-3.30;99.90
9305;DHT22;4690;52.422;13.486;2024-01-10T11:27:16;-3.30;99.90
9305;DHT22;4690;52.422;13.486;2024-01-10T11:29:42;-3.10;99.90
9305;DHT22;4690;52.422;13.486;2024-01-10T11:32:18;-3.00;99.90
9305;DHT22;4690;52.422;13.486;2024-01-10T11:37:39;-2.80;99.90
9305;DHT22;4690;52.422;13.486;2024-01-10T11:40:08;-2.60;99.90
9305;DHT22;4690;52.422;13.486;2024-01-10T11:42:45;-2.40;99.90
9305;DHT22;4690;52.422;13.486;2024-01-10T11:48:02;-2.30;99.90
9305;DHT22;4690;52.422;13.486;2024-01-10T11:50:29;-2.20;99.90
9305;DHT22;4690;52.422;13.486;2024-01-10T11:52:56;-2.10;99.90
9305;DHT22;4690;52.422;13.486;2024-01-10T11:55:49;-2.00;99.90
9305;DHT22;4690;52.422;13.486;2024-01-10T11:58:19;-1.80;99.90
9305;DHT22;4690;52.422;13.486;2024-01-10T12:00:46;-1.70;99.90
9305;DHT22;4690;52.422;13.486;2024-01-10T12:03:14;-1.40;99.90
9305;DHT22;4690;52.422;13.486;2024-01-10T12:05:40;-1.30;99.90
9305;DHT22;4690;52.422;13.486;2024-01-10T12:08:10;-1.20;99.90
9305;DHT22;4690;52.422;13.486;2024-01-10T12:10:36;-1.20;99.90
9305;DHT22;4690;52.422;13.486;2024-01-10T12:13:03;-1.10;99.90
9305;DHT22;4690;52.422;13.486;2024-01-10T12:15:29;-1.00;99.90
9305;DHT22;4690;52.422;13.486;2024-01-10T12:17:56;-0.80;99.90
9305;DHT22;4690;52.422;13.486;2024-01-10T12:20:22;-0.60;99.90
9305;DHT22;4690;52.422;13.486;2024-01-10T12:22:47;-0.60;99.90
9305;DHT22;4690;52.422;13.486;2024-01-10T12:25:13;-0.80;99.90
9305;DHT22;4690;52.422;13.486;2024-01-10T12:27:39;-0.80;99.90
9305;DHT22;4690;52.422;13.486;2024-01-10T12:30:06;-0.70;99.90
9305;DHT22;4690;52.422;13.486;2024-01-10T12:32:33;-0.60;99.90
9305;DHT22;4690;52.422;13.486;2024-01-10T12:35:02;-0.70;99.90
9305;DHT22;4690;52.422;13.486;2024-01-10T12:37:29;-0.80;99.90
9305;DHT22;4690;52.422;13.486;2024-01-10T12:39:56;-0.70;99.90
9305;DHT22;4690;52.422;13.486;2024-01-10T12:42:22;-0.70;99.90
9305;DHT22;4690;52.422;13.486;2024-01-10T12:44:49;-0.90;99.90
9305;DHT22;4690;52.422;13.486;2024-01-10T12:47:22;-0.90;99.90
9305;DHT22;4690;52.422;13.486;2024-01-10T12:49:50;-0.90;99.90
9305;DHT22;4690;52.422;13.486;2024-01-10T12:52:16;-1.00;99.90
9305;DHT22;4690;52.422;13.486;2024-01-10T12:54:42;-1.00;99.90
9305;DHT22;4690;52.422;13.486;2024-01-10T12:57:09;-1.00;99.90
9305;DHT22;4690;52.422;13.486;2024-01-10T12:59:35;-1.10;99.90
9305;DHT22;4690;52.422;13.486;2024-01-10T13:02:01;-1.10;99.90
9305;DHT22;4690;52.422;13.486;2024-01-10T13:04:27;-1.00;99.90
9305;DHT22;4690;52.422;13.486;2024-01-10T13:06:53;-1.20;99.90
9305;DHT22;4690;52.422;13.486;2024-01-10T13:09:18;-1.20;99.90
9305;DHT22;4690;52.422;13.486;2024-01-10T13:11:44;-1.20;99.90
9305;DHT22;4690;52.422;13.486;2024-01-10T13:14:11;-1.30;99.90
9305;DHT22;4690;52.422;13.486;2024-01-10T13:16:37;-1.30;99.90
9305;DHT22;4690;52.422;13.486;2024-01-10T13:19:03;-1.30;99.90
9305;DHT22;4690;52.422;13.486;2024-01-10T13:21:29;-1.30;99.90
9305;DHT22;4690;52.422;13.486;2024-01-10T13:23:55;-1.30;99.90
9305;DHT22;4690;52.422;13.486;2024-01-10T13:26:20;-1.20;99.90
9305;DHT22;4690;52.422;13.486;2024-01-10T13:28:46;-1.20;99.90
9305;DHT22;4690;52.422;13.486;2024-01-10T13:31:12;-1.00;99.90
9305;DHT22;4690;52.422;13.486;2024-01-10T13:33:39;-0.90;99.90
9305;DHT22;4690;52.422;13.486;2024-01-10T13:36:05;-0.90;99.90
9305;DHT22;4690;52.422;13.486;2024-01-10T13:38:31;-0.80;99.90
9305;DHT22;4690;52.422;13.486;2024-01-10T13:40:57;-0.70;99.90
9305;DHT22;4690;52.422;13.486;2024-01-10T13:43:23;-0.70;99.90
9305;DHT22;4690;52.422;13.486;2024-01-10T13:45:49;-0.80;99.90
9305;DHT22;4690;52.422;13.486;2024-01-10T13:48:15;-0.70;99.90
9305;DHT22;4690;52.422;13.486;2024-01-10T13:50:41;-0.70;99.90
9305;DHT22;4690;52.422;13.486;2024-01-10T13:53:07;-0.80;99.90
9305;DHT22;4690;52.422;13.486;2024-01-10T13:55:33;-0.80;99.90
9305;DHT22;4690;52.422;13.486;2024-01-10T13:58:01;-0.80;99.90
9305;DHT22;4690;52.422;13.486;2024-01-10T14:00:26;-0.80;99.90
9305;DHT22;4690;52.422;13.486;2024-01-10T14:02:52;-1.00;99.90
9305;DHT22;4690;52.422;13.486;2024-01-10T14:05:24;-1.00;99.90
9305;DHT22;4690;52.422;13.486;2024-01-10T14:07:53;-1.00;99.90
9305;DHT22;4690;52.422;13.486;2024-01-10T14:10:19;-1.00;99.90
9305;DHT22;4690;52.422;13.486;2024-01-10T14:12:44;-1.10;99.90
9305;DHT22;4690;52.422;13.486;2024-01-10T14:15:11;-1.10;99.90
9305;DHT22;4690;52.422;13.486;2024-01-10T14:17:37;-1.10;99.90
9305;DHT22;4690;52.422;13.486;2024-01-10T14:20:03;-1.10;99.90
9305;DHT22;4690;52.422;13.486;2024-01-10T14:22:29;-1.20;99.90
9305;DHT22;4690;52.422;13.486;2024-01-10T14:24:55;-1.20;99.90
9305;DHT22;4690;52.422;13.486;2024-01-10T14:27:21;-1.30;99.90
9305;DHT22;4690;52.422;13.486;2024-01-10T14:29:47;-1.30;99.90
9305;DHT22;4690;52.422;13.486;2024-01-10T14:32:13;-1.40;99.90
9305;DHT22;4690;52.422;13.486;2024-01-10T14:34:40;-1.40;99.90
9305;DHT22;4690;52.422;13.486;2024-01-10T14:37:06;-1.40;99.90
9305;DHT22;4690;52.422;13.486;2024-01-10T14:39:34;-1.40;99.90
9305;DHT22;4690;52.422;13.486;2024-01-10T14:42:07;-1.50;99.90
9305;DHT22;4690;52.422;13.486;2024-01-10T14:44:37;-1.40;99.90
9305;DHT22;4690;52.422;13.486;2024-01-10T14:47:03;-1.50;99.90
9305;DHT22;4690;52.422;13.486;2024-01-10T14:49:30;-1.50;99.90
9305;DHT22;4690;52.422;13.486;2024-01-10T14:51:56;-1.50;99.90
9305;DHT22;4690;52.422;13.486;2024-01-10T14:54:22;-1.60;99.90
9305;DHT22;4690;52.422;13.486;2024-01-10T14:56:48;-1.70;99.90
9305;DHT22;4690;52.422;13.486;2024-01-10T14:59:14;-1.70;99.90
9305;DHT22;4690;52.422;13.486;2024-01-10T15:01:47;-1.80;99.90
9305;DHT22;4690;52.422;13.486;2024-01-10T15:04:13;-1.90;99.90
9305;DHT22;4690;52.422;13.486;2024-01-10T15:06:44;-1.90;99.90
9305;DHT22;4690;52.422;13.486;2024-01-10T15:09:10;-2.00;99.90
9305;DHT22;4690;52.422;13.486;2024-01-10T15:11:38;-2.10;99.90
9305;DHT22;4690;52.422;13.486;2024-01-10T15:14:05;-2.10;99.90
9305;DHT22;4690;52.422;13.486;2024-01-10T15:16:31;-2.10;99.90
9305;DHT22;4690;52.422;13.486;2024-01-10T15:18:57;-2.20;99.90
9305;DHT22;4690;52.422;13.486;2024-01-10T15:21:22;-2.30;99.90
9305;DHT22;4690;52.422;13.486;2024-01-10T15:23:48;-2.40;99.90
9305;DHT22;4690;52.422;13.486;2024-01-10T15:26:17;-2.40;99.90
9305;DHT22;4690;52.422;13.486;2024-01-10T15:28:47;-2.50;99.90
9305;DHT22;4690;52.422;13.486;2024-01-10T15:31:17;-2.50;99.90
9305;DHT22;4690;52.422;13.486;2024-01-10T15:33:44;-2.50;99.90
9305;DHT22;4690;52.422;13.486;2024-01-10T15:36:10;-2.60;99.90
9305;DHT22;4690;52.422;13.486;2024-01-10T15:38:36;-2.60;99.90
9305;DHT22;4690;52.422;13.486;2024-01-10T15:41:02;-2.70;99.90
9305;DHT22;4690;52.422;13.486;2024-01-10T15:43:28;-2.70;99.90
9305;DHT22;4690;52.422;13.486;2024-01-10T15:45:54;-2.80;99.90
9305;DHT22;4690;52.422;13.486;2024-01-10T15:48:20;-2.80;99.90
9305;DHT22;4690;52.422;13.486;2024-01-10T15:50:46;-2.90;99.90
9305;DHT22;4690;52.422;13.486;2024-01-10T15:53:11;-2.90;99.90
9305;DHT22;4690;52.422;13.486;2024-01-10T15:55:37;-3.00;99.90
9305;DHT22;4690;52.422;13.486;2024-01-10T15:58:05;-3.00;99.90
9305;DHT22;4690;52.422;13.486;2024-01-10T16:00:32;-3.10;99.90
9305;DHT22;4690;52.422;13.486;2024-01-10T16:02:58;-3.10;99.90
9305;DHT22;4690;52.422;13.486;2024-01-10T16:05:23;-3.10;99.90
9305;DHT22;4690;52.422;13.486;2024-01-10T16:07:50;-3.10;99.90
9305;DHT22;4690;52.422;13.486;2024-01-10T16:10:16;-3.20;99.90
9305;DHT22;4690;52.422;13.486;2024-01-10T16:12:44;-3.20;99.90